Terminal Aerodrome Forecast
Issued by NWS Lubbock, TX

Home | Current Version | Previous Version | Text Only | Print | Product List | Glossary On
Versions: 1 2 3 4 5 6 7 8 9 10 11 12 13 14
043
FTUS44 KLUB 230539
TAFLBB
TAF
KLBB 230539Z 2306/2406 16011KT P6SM SCT250
     FM231100 17013KT P6SM SCT008 BKN012
     FM231800 16017G25KT P6SM SCT020 BKN040
     FM240100 15015KT P6SM BKN040=

USA.gov is the U.S. government's official web portal to all federal, state and local government web resources and services.